createdAt,value
2018-03-24T00:01:12.403Z,9.94
2018-03-24T00:03:40.995Z,9.75
2018-03-24T00:06:09.676Z,9.84
2018-03-24T00:08:38.154Z,9.93
2018-03-24T00:11:06.565Z,9.16
2018-03-24T00:13:35.119Z,8.77
2018-03-24T00:16:03.696Z,8.87
2018-03-24T00:18:32.178Z,9.33
2018-03-24T00:21:01.073Z,9.61
2018-03-24T00:23:29.446Z,9.73
2018-03-24T00:25:58.127Z,9.68
2018-03-24T00:28:26.815Z,9.82
2018-03-24T00:30:55.096Z,9.86
2018-03-24T00:33:23.773Z,9.84
2018-03-24T00:35:52.241Z,9.90
2018-03-24T00:38:21.142Z,9.83
2018-03-24T00:40:49.630Z,9.67
2018-03-24T00:43:18.415Z,9.61
2018-03-24T00:45:46.690Z,9.48
2018-03-24T00:48:15.200Z,9.71
2018-03-24T00:50:43.749Z,9.83
2018-03-24T00:53:12.740Z,9.85
2018-03-24T00:55:41.221Z,9.79
2018-03-24T00:58:09.796Z,9.75
2018-03-24T01:00:38.169Z,9.72
2018-03-24T01:03:06.765Z,9.66
2018-03-24T01:05:35.295Z,9.44
2018-03-24T01:08:03.294Z,9.42
2018-03-24T01:10:31.205Z,9.53
2018-03-24T01:12:59.817Z,9.55
2018-03-24T01:15:28.643Z,9.17
2018-03-24T01:17:57.458Z,9.30
2018-03-24T01:20:26.032Z,9.52
2018-03-24T01:22:54.716Z,9.10
2018-03-24T01:25:23.138Z,8.95
2018-03-24T01:27:51.675Z,9.23
2018-03-24T01:30:19.890Z,8.87
2018-03-24T01:32:48.429Z,8.68
2018-03-24T01:35:17.113Z,8.26
2018-03-24T01:37:45.389Z,8.62
2018-03-24T01:40:13.865Z,8.84
2018-03-24T01:42:42.654Z,8.15
2018-03-24T01:45:10.822Z,8.03
2018-03-24T01:47:39.514Z,8.43
2018-03-24T01:50:07.992Z,7.84
2018-03-24T01:52:36.489Z,7.97
2018-03-24T01:55:05.467Z,8.02
2018-03-24T01:57:33.855Z,7.67
2018-03-24T02:00:02.239Z,7.46
2018-03-24T02:02:30.710Z,7.91
2018-03-24T02:04:59.274Z,8.12
2018-03-24T02:07:27.873Z,7.96
2018-03-24T02:09:56.019Z,7.99
2018-03-24T02:12:24.530Z,8.21
2018-03-24T02:14:53.107Z,7.68
2018-03-24T02:17:21.395Z,7.08
2018-03-24T02:19:49.866Z,7.18
2018-03-24T02:22:18.330Z,7.33
2018-03-24T02:27:51.343Z,8.06
2018-03-24T02:30:19.744Z,8.18
2018-03-24T02:32:48.420Z,7.67
2018-03-24T02:35:16.915Z,7.40
2018-03-24T02:37:45.801Z,7.88
2018-03-24T02:40:14.372Z,8.14
2018-03-24T02:42:42.754Z,7.85
2018-03-24T02:45:11.327Z,8.39
2018-03-24T02:47:39.961Z,7.93
2018-03-24T02:50:08.294Z,8.12
2018-03-24T02:52:36.768Z,8.45
2018-03-24T02:55:05.150Z,8.80
2018-03-24T02:57:33.632Z,8.94
2018-03-24T03:00:02.113Z,9.12
2018-03-24T03:02:30.590Z,8.91
2018-03-24T03:04:59.379Z,8.57
2018-03-24T03:07:28.068Z,8.73
2018-03-24T03:09:56.558Z,8.91
2018-03-24T03:12:25.334Z,8.56
2018-03-24T03:14:53.731Z,8.84
2018-03-24T03:17:22.191Z,8.67
2018-03-24T03:19:50.908Z,8.07
2018-03-24T03:22:19.658Z,8.63
2018-03-24T03:24:48.346Z,8.56
2018-03-24T03:27:16.841Z,8.77
2018-03-24T03:29:45.371Z,8.35
2018-03-24T03:32:13.888Z,7.95
2018-03-24T03:34:42.271Z,7.47
2018-03-24T03:37:10.847Z,7.15
2018-03-24T03:39:39.462Z,7.00
2018-03-24T03:42:07.919Z,6.78
2018-03-24T03:44:36.603Z,6.83
2018-03-24T03:47:05.074Z,7.10
2018-03-24T03:49:33.596Z,7.43
2018-03-24T03:52:02.033Z,7.39
2018-03-24T03:54:30.623Z,6.86
2018-03-24T03:56:59.012Z,7.16
2018-03-24T03:59:27.994Z,7.02
2018-03-24T04:01:56.681Z,7.60
2018-03-24T04:04:25.077Z,8.06
2018-03-24T04:06:53.643Z,7.97
2018-03-24T04:09:22.038Z,8.02
2018-03-24T04:11:50.698Z,8.09
2018-03-24T04:14:19.182Z,8.04
2018-03-24T04:16:47.767Z,8.04
2018-03-24T04:19:16.246Z,8.22
2018-03-24T04:21:45.035Z,8.46
2018-03-24T04:24:13.515Z,8.03
2018-03-24T04:26:42.099Z,7.81
2018-03-24T04:29:10.698Z,8.30
2018-03-24T04:31:38.675Z,8.18
2018-03-24T04:34:06.679Z,8.09
2018-03-24T04:36:34.654Z,7.77
2018-03-24T04:39:02.644Z,7.69
2018-03-24T04:41:31.242Z,7.43
2018-03-24T04:43:59.775Z,7.25
2018-03-24T04:46:28.307Z,7.63
2018-03-24T04:48:57.205Z,7.85
2018-03-24T04:51:25.878Z,7.70
2018-03-24T04:53:54.199Z,7.43
2018-03-24T04:56:22.871Z,7.62
2018-03-24T04:58:51.833Z,8.14
2018-03-24T05:01:20.447Z,8.61
2018-03-24T05:03:49.112Z,8.75
2018-03-24T05:06:17.527Z,8.65
2018-03-24T05:08:45.884Z,8.78
2018-03-24T05:11:14.546Z,8.77
2018-03-24T05:13:43.107Z,8.66
2018-03-24T05:16:11.501Z,8.82
2018-03-24T05:18:40.184Z,8.56
2018-03-24T05:21:08.753Z,8.76
2018-03-24T05:23:37.246Z,8.71
2018-03-24T05:26:05.662Z,8.78
2018-03-24T05:28:34.295Z,8.91
2018-03-24T05:31:02.891Z,8.83
2018-03-24T05:33:31.584Z,9.03
2018-03-24T05:36:00.162Z,8.97
2018-03-24T05:38:28.741Z,8.36
2018-03-24T05:40:57.138Z,8.75
2018-03-24T05:43:25.716Z,8.90
2018-03-24T05:45:54.603Z,9.12
2018-03-24T05:48:23.087Z,9.36
2018-03-24T05:50:51.758Z,9.05
2018-03-24T05:53:20.145Z,8.77
2018-03-24T05:55:48.810Z,9.00
2018-03-24T05:58:17.204Z,9.19
2018-03-24T06:00:45.472Z,9.40
2018-03-24T06:03:14.383Z,9.47
2018-03-24T06:05:42.850Z,9.47
2018-03-24T06:08:11.334Z,9.55
2018-03-24T06:10:39.719Z,9.10
2018-03-24T06:13:08.299Z,9.07
2018-03-24T06:15:36.652Z,8.55
2018-03-24T06:18:05.367Z,8.84
2018-03-24T06:20:33.842Z,9.08
2018-03-24T06:23:02.424Z,9.23
2018-03-24T06:25:30.919Z,9.03
2018-03-24T06:27:59.592Z,8.67
2018-03-24T06:30:42.971Z,9.17
2018-03-24T06:33:11.391Z,8.74
2018-03-24T06:35:40.698Z,8.93
2018-03-24T06:38:09.439Z,9.03
2018-03-24T06:40:37.843Z,9.48
2018-03-24T06:43:06.325Z,9.41
2018-03-24T06:45:34.818Z,9.60
2018-03-24T06:48:03.406Z,9.87
2018-03-24T06:50:31.884Z,9.80
2018-03-24T06:53:00.366Z,10.16
2018-03-24T06:55:28.961Z,9.97
2018-03-24T06:57:57.446Z,10.35
2018-03-24T07:00:26.106Z,10.50
2018-03-24T07:02:54.591Z,9.65
2018-03-24T07:05:23.227Z,9.62
2018-03-24T07:07:51.658Z,8.90
2018-03-24T07:10:19.943Z,9.71
2018-03-24T07:12:48.511Z,10.26
2018-03-24T07:15:16.990Z,10.37
2018-03-24T07:17:45.480Z,10.77
2018-03-24T07:20:13.967Z,9.89
2018-03-24T07:22:42.545Z,9.37
2018-03-24T07:25:10.922Z,9.22
2018-03-24T07:27:39.396Z,9.57
2018-03-24T07:30:07.977Z,9.22
2018-03-24T07:32:36.360Z,9.69
2018-03-24T07:35:04.738Z,10.07
2018-03-24T07:37:33.172Z,10.36
2018-03-24T07:40:01.509Z,9.70
2018-03-24T07:42:30.378Z,10.09
2018-03-24T07:44:58.753Z,10.30
2018-03-24T07:47:27.443Z,10.37
2018-03-24T07:49:55.720Z,10.00
2018-03-24T07:52:24.268Z,10.43
2018-03-24T07:54:53.135Z,10.41
2018-03-24T07:57:21.778Z,9.14
2018-03-24T07:59:50.154Z,9.93
2018-03-24T08:02:18.516Z,9.99
2018-03-24T08:04:47.224Z,10.48
2018-03-24T08:07:15.614Z,10.07
2018-03-24T08:09:44.482Z,9.04
2018-03-24T08:12:12.962Z,9.34
2018-03-24T08:14:41.646Z,9.62
2018-03-24T08:17:10.330Z,9.83
2018-03-24T08:19:38.818Z,9.70
2018-03-24T08:22:07.303Z,10.29
2018-03-24T08:24:36.399Z,10.87
2018-03-24T08:27:04.770Z,10.99
2018-03-24T08:29:33.251Z,10.73
2018-03-24T08:32:01.546Z,10.77
2018-03-24T08:34:29.869Z,10.69
2018-03-24T08:36:58.382Z,10.61
2018-03-24T08:39:26.660Z,11.20
2018-03-24T08:41:55.447Z,11.44
2018-03-24T08:44:23.943Z,11.96
2018-03-24T08:46:52.515Z,11.86
2018-03-24T08:49:21.094Z,12.11
2018-03-24T08:51:49.680Z,11.58
2018-03-24T08:54:18.255Z,10.86
2018-03-24T08:56:46.644Z,11.44
2018-03-24T08:59:15.435Z,11.45
2018-03-24T09:01:43.992Z,10.75
2018-03-24T09:04:12.524Z,11.59
2018-03-24T09:06:41.112Z,11.31
2018-03-24T09:09:09.752Z,12.30
2018-03-24T09:11:38.152Z,12.53
2018-03-24T09:14:06.718Z,13.43
2018-03-24T09:16:35.218Z,12.59
2018-03-24T09:19:03.683Z,12.52
2018-03-24T09:21:32.756Z,13.29
2018-03-24T09:24:01.137Z,12.66
2018-03-24T09:26:29.522Z,12.98
2018-03-24T09:28:58.010Z,13.50
2018-03-24T09:31:26.492Z,13.35
2018-03-24T09:33:54.880Z,12.80
2018-03-24T09:36:23.250Z,13.27
2018-03-24T09:38:52.054Z,13.29
2018-03-24T09:41:20.719Z,12.88
2018-03-24T09:43:49.079Z,12.42
2018-03-24T09:46:17.391Z,12.85
2018-03-24T09:48:45.750Z,13.24
2018-03-24T09:51:14.021Z,13.16
2018-03-24T09:53:42.274Z,13.75
2018-03-24T09:56:10.923Z,13.49
2018-03-24T09:58:39.243Z,12.96
2018-03-24T10:01:08.051Z,13.38
2018-03-24T10:03:36.739Z,12.85
2018-03-24T10:06:05.422Z,12.94
2018-03-24T10:08:33.906Z,12.55
2018-03-24T10:11:02.711Z,11.96
2018-03-24T10:13:31.459Z,12.37
2018-03-24T10:15:59.744Z,12.76
2018-03-24T10:18:28.227Z,13.45
2018-03-24T10:20:57.431Z,12.73
2018-03-24T10:23:37.258Z,12.91
2018-03-24T10:26:05.698Z,12.61
2018-03-24T10:28:34.643Z,12.33
2018-03-24T10:31:04.136Z,12.97
2018-03-24T10:33:34.046Z,13.37
2018-03-24T10:36:02.688Z,12.28
2018-03-24T10:38:31.041Z,11.81
2018-03-24T10:41:06.245Z,12.87
2018-03-24T10:43:39.879Z,11.49
2018-03-24T10:46:08.549Z,11.50
2018-03-24T10:48:37.035Z,11.94
2018-03-24T10:51:05.615Z,11.92
2018-03-24T10:53:33.972Z,12.16
2018-03-24T10:56:02.574Z,12.57
2018-03-24T10:58:31.055Z,12.44
2018-03-24T11:04:04.779Z,12.21
2018-03-24T11:06:32.954Z,12.32
2018-03-24T11:09:01.266Z,12.03
2018-03-24T11:11:30.019Z,11.63
2018-03-24T11:13:58.333Z,11.47
2018-03-24T11:16:27.174Z,11.89
2018-03-24T11:18:55.613Z,10.57
2018-03-24T11:21:23.953Z,11.05
2018-03-24T11:23:52.221Z,11.63
2018-03-24T11:26:20.778Z,11.57
2018-03-24T11:28:49.171Z,10.87
2018-03-24T11:31:17.760Z,11.33
2018-03-24T11:33:46.037Z,11.76
2018-03-24T11:36:14.415Z,11.44
2018-03-24T11:38:42.886Z,10.90
2018-03-24T11:41:11.351Z,11.24
2018-03-24T11:43:39.960Z,11.95
2018-03-24T11:46:08.434Z,13.10
2018-03-24T11:48:36.997Z,13.14
2018-03-24T11:51:05.493Z,14.85
2018-03-24T11:53:45.597Z,16.52
2018-03-24T11:56:14.078Z,16.08
2018-03-24T11:58:42.350Z,15.95
2018-03-24T12:01:11.175Z,14.71
2018-03-24T12:03:39.839Z,14.28
2018-03-24T12:06:08.254Z,13.88
2018-03-24T12:08:36.739Z,13.51
2018-03-24T12:11:05.119Z,13.81
2018-03-24T12:13:33.923Z,13.50
2018-03-24T12:16:02.590Z,13.80
2018-03-24T12:18:30.966Z,14.88
2018-03-24T12:20:59.580Z,13.71
2018-03-24T12:23:27.824Z,14.22
2018-03-24T12:25:56.288Z,16.15
2018-03-24T12:28:24.686Z,15.84
2018-03-24T12:30:53.266Z,16.58
2018-03-24T12:33:21.265Z,15.58
2018-03-24T12:35:49.234Z,14.85
2018-03-24T12:38:17.169Z,15.46
2018-03-24T12:40:45.125Z,16.05
2018-03-24T12:43:13.069Z,15.96
2018-03-24T12:45:41.083Z,16.17
2018-03-24T12:48:09.389Z,15.80
2018-03-24T12:50:37.357Z,14.39
2018-03-24T12:53:05.476Z,13.50
2018-03-24T12:55:33.982Z,13.05
2018-03-24T12:58:02.008Z,12.72
2018-03-24T13:00:30.553Z,13.16
2018-03-24T13:02:59.378Z,13.30
2018-03-24T13:05:27.338Z,13.35
2018-03-24T13:07:55.427Z,15.14
2018-03-24T13:10:23.464Z,14.81
2018-03-24T13:12:51.463Z,14.83
2018-03-24T13:15:19.868Z,13.63
2018-03-24T13:17:47.843Z,14.18
2018-03-24T13:20:15.754Z,14.23
2018-03-24T13:22:43.734Z,14.69
2018-03-24T13:25:11.720Z,13.80
2018-03-24T13:27:39.694Z,13.80
2018-03-24T13:30:07.647Z,13.24
2018-03-24T13:32:35.632Z,13.56
2018-03-24T13:35:04.058Z,14.37
2018-03-24T13:37:32.814Z,14.08
2018-03-24T13:40:01.215Z,13.89
2018-03-24T13:42:29.967Z,13.61
2018-03-24T13:44:58.462Z,14.12
2018-03-24T13:47:26.943Z,13.46
2018-03-24T13:49:55.095Z,12.75
2018-03-24T13:52:23.020Z,12.53
2018-03-24T13:54:51.860Z,12.34
2018-03-24T13:57:20.251Z,13.13
2018-03-24T13:59:48.285Z,13.49
2018-03-24T14:02:16.386Z,14.41
2018-03-24T14:04:44.933Z,14.10
2018-03-24T14:07:13.465Z,13.28
2018-03-24T14:09:41.511Z,13.68
2018-03-24T14:12:10.207Z,13.48
2018-03-24T14:14:38.595Z,12.39
2018-03-24T14:17:07.430Z,12.21
2018-03-24T14:19:35.857Z,12.28
2018-03-24T14:22:04.176Z,12.32
2018-03-24T14:24:32.754Z,12.76
2018-03-24T14:27:01.233Z,13.07
2018-03-24T14:29:30.084Z,11.91
2018-03-24T14:31:58.656Z,12.29
2018-03-24T14:34:27.247Z,12.13
2018-03-24T14:36:55.579Z,11.74
2018-03-24T14:39:24.106Z,12.00
2018-03-24T14:41:52.796Z,12.65
2018-03-24T14:44:21.764Z,13.02
2018-03-24T14:46:50.375Z,12.88
2018-03-24T14:49:18.563Z,12.14
2018-03-24T14:51:47.136Z,12.55
2018-03-24T14:54:15.844Z,12.21
2018-03-24T14:56:44.389Z,12.98
2018-03-24T14:59:12.870Z,12.87
2018-03-24T15:01:41.279Z,12.91
2018-03-24T15:04:09.738Z,13.29
2018-03-24T15:06:38.294Z,12.78
2018-03-24T15:09:06.672Z,12.60
2018-03-24T15:11:35.086Z,11.36
2018-03-24T15:14:03.563Z,10.91
2018-03-24T15:16:32.135Z,10.87
2018-03-24T15:19:00.823Z,11.43
2018-03-24T15:21:29.393Z,11.57
2018-03-24T15:23:57.887Z,11.24
2018-03-24T15:26:26.352Z,10.70
2018-03-24T15:29:07.098Z,10.75
2018-03-24T15:31:47.485Z,10.88
2018-03-24T15:34:27.806Z,10.27
2018-03-24T15:36:56.319Z,10.40
2018-03-24T15:39:24.839Z,10.90
2018-03-24T15:41:53.702Z,11.31
2018-03-24T15:44:22.382Z,10.83
2018-03-24T15:46:50.970Z,10.38
2018-03-24T15:49:19.259Z,9.90
2018-03-24T15:51:47.518Z,9.47
2018-03-24T15:54:15.980Z,9.37
2018-03-24T15:56:44.474Z,9.41
2018-03-24T15:59:13.064Z,9.44
2018-03-24T16:01:41.478Z,9.59
2018-03-24T16:04:10.021Z,9.85
2018-03-24T16:06:38.601Z,9.29
2018-03-24T16:09:07.598Z,9.08
2018-03-24T16:11:36.087Z,8.99
2018-03-24T16:14:04.575Z,9.27
2018-03-24T16:16:33.441Z,9.16
2018-03-24T16:19:01.910Z,9.21
2018-03-24T16:21:31.024Z,8.95
2018-03-24T16:23:59.040Z,9.08
2018-03-24T16:26:26.980Z,8.78
2018-03-24T16:28:54.992Z,8.75
2018-03-24T16:31:23.518Z,8.57
2018-03-24T16:33:51.895Z,8.50
2018-03-24T16:36:20.282Z,8.49
2018-03-24T16:38:48.670Z,8.41
2018-03-24T16:41:17.332Z,8.46
2018-03-24T16:43:45.853Z,8.71
2018-03-24T16:46:14.603Z,8.65
2018-03-24T16:48:42.729Z,9.36
2018-03-24T16:51:11.193Z,9.84
2018-03-24T16:53:39.433Z,9.28
2018-03-24T16:56:08.092Z,9.41
2018-03-24T16:58:36.472Z,9.53
2018-03-24T17:01:04.967Z,9.34
2018-03-24T17:03:33.655Z,9.16
2018-03-24T17:06:02.256Z,9.32
2018-03-24T17:08:30.837Z,9.10
2018-03-24T17:10:59.398Z,9.40
2018-03-24T17:13:27.882Z,9.69
2018-03-24T17:15:56.462Z,9.27
2018-03-24T17:18:24.743Z,8.56
2018-03-24T17:20:53.427Z,8.41
2018-03-24T17:23:22.011Z,8.39
2018-03-24T17:25:50.501Z,8.59
2018-03-24T17:28:18.870Z,8.68
2018-03-24T17:30:47.534Z,8.79
2018-03-24T17:33:15.734Z,9.01
2018-03-24T17:35:44.305Z,8.97
2018-03-24T17:38:12.686Z,9.19
2018-03-24T17:40:41.168Z,8.80
2018-03-24T17:43:09.201Z,8.92
2018-03-24T17:45:37.632Z,8.71
2018-03-24T17:48:06.404Z,8.95
2018-03-24T17:50:35.011Z,9.22
2018-03-24T17:53:03.535Z,9.02
2018-03-24T17:55:32.266Z,9.32
2018-03-24T17:58:00.818Z,8.65
2018-03-24T18:00:29.456Z,8.18
2018-03-24T18:02:58.005Z,8.23
2018-03-24T18:05:26.797Z,8.32
2018-03-24T18:07:55.518Z,8.32
2018-03-24T18:10:23.955Z,8.19
2018-03-24T18:12:52.846Z,8.08
2018-03-24T18:15:21.434Z,8.07
2018-03-24T18:17:49.914Z,7.99
2018-03-24T18:20:18.495Z,8.18
2018-03-24T18:22:46.875Z,8.55
2018-03-24T18:25:15.286Z,8.19
2018-03-24T18:27:43.813Z,8.41
2018-03-24T18:30:12.410Z,8.67
2018-03-24T18:32:40.997Z,7.92
2018-03-24T18:35:09.688Z,7.88
2018-03-24T18:37:38.163Z,8.17
2018-03-24T18:40:06.755Z,8.18
2018-03-24T18:42:35.451Z,7.89
2018-03-24T18:45:04.119Z,8.01
2018-03-24T18:47:32.595Z,8.04
2018-03-24T18:50:01.180Z,8.14
2018-03-24T18:52:29.679Z,8.10
2018-03-24T18:54:58.142Z,8.25
2018-03-24T18:57:26.618Z,8.22
2018-03-24T18:59:55.045Z,8.73
2018-03-24T19:02:23.375Z,8.66
2018-03-24T19:04:52.043Z,8.51
2018-03-24T19:07:21.107Z,8.61
2018-03-24T19:09:49.538Z,8.44
2018-03-24T19:12:17.917Z,8.86
2018-03-24T19:14:46.693Z,8.41
2018-03-24T19:17:15.161Z,8.13
2018-03-24T19:19:43.767Z,8.26
2018-03-24T19:22:12.079Z,8.49
2018-03-24T19:24:40.110Z,8.65
2018-03-24T19:27:08.387Z,8.95
2018-03-24T19:29:36.327Z,9.12
2018-03-24T19:32:04.327Z,8.92
2018-03-24T19:34:32.358Z,8.67
2018-03-24T19:37:00.547Z,8.81
2018-03-24T19:39:28.692Z,8.76
2018-03-24T19:41:57.271Z,9.11
2018-03-24T19:44:25.906Z,8.60
2018-03-24T19:46:54.796Z,8.08
2018-03-24T19:49:23.202Z,8.02
2018-03-24T19:51:51.353Z,8.09
2018-03-24T19:54:19.318Z,8.65
2018-03-24T19:56:47.286Z,8.39
2018-03-24T19:59:15.672Z,8.06
2018-03-24T20:01:43.968Z,8.01
2018-03-24T20:04:12.515Z,8.14
2018-03-24T20:06:40.526Z,8.02
2018-03-24T20:09:09.053Z,8.13
2018-03-24T20:11:37.331Z,9.03
2018-03-24T20:14:06.024Z,9.47
2018-03-24T20:16:34.605Z,8.78
2018-03-24T20:19:02.994Z,8.71
2018-03-24T20:21:31.671Z,8.78
2018-03-24T20:24:00.470Z,9.12
2018-03-24T20:26:28.947Z,8.93
2018-03-24T20:28:57.943Z,8.97
2018-03-24T20:31:26.297Z,9.13
2018-03-24T20:33:54.792Z,9.25
2018-03-24T20:36:23.574Z,8.92
2018-03-24T20:38:51.963Z,9.23
2018-03-24T20:41:20.448Z,9.37
2018-03-24T20:43:48.714Z,8.87
2018-03-24T20:46:17.077Z,9.21
2018-03-24T20:48:45.660Z,9.44
2018-03-24T20:51:14.371Z,9.73
2018-03-24T20:53:42.981Z,9.49
2018-03-24T20:56:11.435Z,9.78
2018-03-24T20:58:39.947Z,9.83
2018-03-24T21:01:08.506Z,9.68
2018-03-24T21:03:37.378Z,9.45
2018-03-24T21:06:05.658Z,9.28
2018-03-24T21:08:34.351Z,8.47
2018-03-24T21:11:03.330Z,9.00
2018-03-24T21:13:31.805Z,9.23
2018-03-24T21:16:00.094Z,9.30
2018-03-24T21:18:28.466Z,9.62
2018-03-24T21:20:56.742Z,9.78
2018-03-24T21:23:25.458Z,9.71
2018-03-24T21:25:53.971Z,9.81
2018-03-24T21:28:22.398Z,9.59
2018-03-24T21:30:51.407Z,9.56
2018-03-24T21:33:19.597Z,9.69
2018-03-24T21:35:48.342Z,9.67
2018-03-24T21:38:16.716Z,9.71
2018-03-24T21:40:45.406Z,9.78
2018-03-24T21:43:13.782Z,9.70
2018-03-24T21:45:42.712Z,9.59
2018-03-24T21:48:11.155Z,9.45
2018-03-24T21:50:39.601Z,9.47
2018-03-24T21:53:08.027Z,9.30
2018-03-24T21:55:36.473Z,9.19
2018-03-24T21:58:04.899Z,9.20
2018-03-24T22:00:33.245Z,9.46
2018-03-24T22:03:01.746Z,9.43
2018-03-24T22:05:30.212Z,9.18
2018-03-24T22:07:58.999Z,9.06
2018-03-24T22:10:27.358Z,9.18
2018-03-24T22:12:55.953Z,9.25
2018-03-24T22:15:24.946Z,9.09
2018-03-24T22:17:53.434Z,9.39
2018-03-24T22:20:21.638Z,9.46
2018-03-24T22:22:50.295Z,9.44
2018-03-24T22:25:19.183Z,9.26
2018-03-24T22:27:47.867Z,9.33
2018-03-24T22:30:16.759Z,9.34
2018-03-24T22:32:45.528Z,8.82
2018-03-24T22:35:13.918Z,9.17
2018-03-24T22:37:42.402Z,9.32
2018-03-24T22:40:10.984Z,9.41
2018-03-24T22:42:39.368Z,9.28
2018-03-24T22:45:07.838Z,8.98
2018-03-24T22:47:36.649Z,9.03
2018-03-24T22:50:05.218Z,8.55
2018-03-24T22:52:33.710Z,8.30
2018-03-24T22:55:02.294Z,8.27
2018-03-24T22:57:30.958Z,8.77
2018-03-24T22:59:59.757Z,8.95
2018-03-24T23:02:28.326Z,9.09
2018-03-24T23:04:56.915Z,9.16
2018-03-24T23:07:25.812Z,9.25
2018-03-24T23:09:54.028Z,9.37
2018-03-24T23:12:22.658Z,9.31
2018-03-24T23:14:50.958Z,9.24
2018-03-24T23:17:19.229Z,9.10
2018-03-24T23:19:47.898Z,9.21
2018-03-24T23:22:16.757Z,9.37
2018-03-24T23:24:45.065Z,9.21
2018-03-24T23:27:13.342Z,9.18
2018-03-24T23:29:42.129Z,9.38
2018-03-24T23:32:10.619Z,9.07
2018-03-24T23:34:39.612Z,9.22
2018-03-24T23:37:07.973Z,9.16
2018-03-24T23:39:36.557Z,9.01
2018-03-24T23:42:05.243Z,8.85
2018-03-24T23:44:33.413Z,9.18
2018-03-24T23:47:01.797Z,9.24
2018-03-24T23:49:30.299Z,9.34
2018-03-24T23:51:58.858Z,9.34
2018-03-24T23:54:27.442Z,9.41
2018-03-24T23:56:55.717Z,9.13
2018-03-24T23:59:24.129Z,9.26
